createdAt,value
2023-04-09T00:01:24.862Z,75.28
2023-04-09T00:03:51.830Z,74.79
2023-04-09T00:06:18.850Z,74.14
2023-04-09T00:08:46.030Z,74.54
2023-04-09T00:11:13.044Z,75.14
2023-04-09T00:13:40.207Z,75.20
2023-04-09T00:16:08.141Z,75.09
2023-04-09T00:18:35.504Z,74.52
2023-04-09T00:21:02.685Z,74.47
2023-04-09T00:23:29.684Z,74.09
2023-04-09T00:25:56.647Z,72.36
2023-04-09T00:28:23.614Z,72.72
2023-04-09T00:30:51.070Z,73.42
2023-04-09T00:33:18.043Z,74.07
2023-04-09T00:35:45.027Z,73.97
2023-04-09T00:38:12.063Z,73.11
2023-04-09T00:40:39.102Z,73.44
2023-04-09T00:43:06.057Z,73.99
2023-04-09T00:45:33.098Z,73.61
2023-04-09T00:48:00.299Z,73.56
2023-04-09T00:50:27.480Z,73.47
2023-04-09T00:52:54.527Z,72.91
2023-04-09T00:55:21.700Z,73.38
2023-04-09T00:57:48.757Z,72.26
2023-04-09T01:00:16.023Z,72.41
2023-04-09T01:02:44.521Z,72.40
2023-04-09T01:05:13.311Z,72.42
2023-04-09T01:08:03.055Z,71.74
2023-04-09T01:10:38.619Z,71.27
2023-04-09T01:13:16.367Z,72.11
2023-04-09T01:15:52.509Z,72.75
2023-04-09T01:18:23.696Z,72.82
2023-04-09T01:21:06.639Z,72.62
2023-04-09T01:24:07.668Z,72.44
2023-04-09T01:26:43.481Z,72.62
2023-04-09T01:29:11.116Z,72.64
2023-04-09T01:31:40.531Z,72.21
2023-04-09T01:34:11.428Z,72.59
2023-04-09T01:36:40.681Z,72.43
2023-04-09T01:39:08.210Z,72.98
2023-04-09T01:41:36.381Z,73.25
2023-04-09T01:44:06.003Z,72.56
2023-04-09T01:46:34.951Z,71.85
2023-04-09T01:49:02.902Z,71.85
2023-04-09T01:51:31.804Z,71.33
2023-04-09T01:53:59.749Z,71.09
2023-04-09T01:56:27.295Z,72.31
2023-04-09T01:58:54.947Z,72.26
2023-04-09T02:01:22.248Z,72.47
2023-04-09T02:03:54.639Z,72.06
2023-04-09T02:06:46.627Z,72.14
2023-04-09T02:09:18.860Z,71.97
2023-04-09T02:11:49.180Z,73.82
2023-04-09T02:14:16.687Z,74.25
2023-04-09T02:16:43.807Z,74.20
2023-04-09T02:19:11.191Z,73.78
2023-04-09T02:21:41.394Z,72.26
2023-04-09T02:24:08.409Z,72.72
2023-04-09T02:26:35.959Z,72.78
2023-04-09T02:29:03.237Z,72.93
2023-04-09T02:31:30.411Z,72.39
2023-04-09T02:33:57.559Z,70.96
2023-04-09T02:36:24.580Z,70.49
2023-04-09T02:38:51.800Z,70.33
2023-04-09T02:41:19.810Z,71.12
2023-04-09T02:43:46.855Z,71.91
2023-04-09T02:46:13.919Z,72.37
2023-04-09T02:48:41.031Z,72.70
2023-04-09T02:51:08.538Z,73.16
2023-04-09T02:53:35.574Z,73.83
2023-04-09T02:56:02.738Z,73.72
2023-04-09T02:58:29.691Z,74.49
2023-04-09T03:00:56.677Z,75.19
2023-04-09T03:03:23.712Z,75.11
2023-04-09T03:05:50.838Z,75.56
2023-04-09T03:08:17.769Z,75.44
2023-04-09T03:10:45.944Z,76.00
2023-04-09T03:13:12.932Z,76.15
2023-04-09T03:15:39.937Z,76.12
2023-04-09T03:18:07.096Z,76.38
2023-04-09T03:20:34.140Z,76.45
2023-04-09T03:23:01.153Z,76.80
2023-04-09T03:25:39.322Z,76.89
2023-04-09T03:28:12.705Z,77.37
2023-04-09T03:30:52.374Z,78.05
2023-04-09T03:33:19.755Z,77.85
2023-04-09T03:35:58.237Z,78.31
2023-04-09T03:38:57.348Z,78.50
2023-04-09T03:41:37.326Z,78.43
2023-04-09T03:44:08.520Z,78.67
2023-04-09T03:46:58.717Z,78.44
2023-04-09T03:49:26.669Z,80.04
2023-04-09T03:51:56.784Z,79.86
2023-04-09T03:54:30.687Z,79.40
2023-04-09T03:56:58.656Z,79.31
2023-04-09T03:59:26.437Z,78.81
2023-04-09T04:01:53.612Z,79.40
2023-04-09T04:04:23.576Z,79.89
2023-04-09T04:06:55.305Z,80.41
2023-04-09T04:09:48.472Z,80.68
2023-04-09T04:12:17.844Z,78.54
2023-04-09T04:15:14.312Z,78.52
2023-04-09T04:17:49.510Z,79.44
2023-04-09T04:20:36.017Z,79.74
2023-04-09T04:23:08.284Z,79.72
2023-04-09T04:25:42.710Z,79.29
2023-04-09T04:28:13.245Z,79.01
2023-04-09T04:30:43.169Z,78.81
2023-04-09T04:33:11.179Z,79.08
2023-04-09T04:35:49.937Z,78.91
2023-04-09T04:38:37.436Z,79.21
2023-04-09T04:41:09.045Z,79.76
2023-04-09T04:43:41.675Z,80.22
2023-04-09T04:46:13.418Z,79.54
2023-04-09T04:48:40.478Z,78.83
2023-04-09T04:51:07.541Z,79.82
2023-04-09T04:53:41.300Z,80.07
2023-04-09T04:56:15.861Z,80.16
2023-04-09T04:59:01.405Z,82.08
2023-04-09T05:01:34.866Z,80.48
2023-04-09T05:04:06.375Z,78.87
2023-04-09T05:06:34.961Z,75.25
2023-04-09T05:09:06.650Z,75.96
2023-04-09T05:11:48.667Z,77.47
2023-04-09T05:14:21.517Z,77.80
2023-04-09T05:16:49.289Z,77.37
2023-04-09T05:19:21.709Z,77.53
2023-04-09T05:21:54.586Z,78.45
2023-04-09T05:24:23.115Z,78.93
2023-04-09T05:26:50.490Z,75.57
2023-04-09T05:29:17.568Z,74.04
2023-04-09T05:31:44.535Z,74.21
2023-04-09T05:34:21.479Z,74.57
2023-04-09T05:36:51.949Z,74.35
2023-04-09T05:39:22.140Z,76.45
2023-04-09T05:41:49.503Z,76.14
2023-04-09T05:44:37.143Z,76.81
2023-04-09T05:47:09.263Z,78.00
2023-04-09T05:49:56.977Z,77.15
2023-04-09T05:52:24.209Z,75.97
2023-04-09T05:54:52.920Z,76.30
2023-04-09T05:57:26.202Z,74.53
2023-04-09T05:59:58.854Z,75.79
2023-04-09T06:02:26.876Z,72.84
2023-04-09T06:04:54.427Z,73.50
2023-04-09T06:07:21.667Z,72.35
2023-04-09T06:09:48.613Z,71.62
2023-04-09T06:12:15.988Z,72.35
2023-04-09T06:14:43.260Z,71.47
2023-04-09T06:17:10.246Z,73.20
2023-04-09T06:19:37.381Z,74.15
2023-04-09T06:22:04.357Z,73.42
2023-04-09T06:24:32.726Z,73.65
2023-04-09T06:26:59.776Z,73.77
2023-04-09T06:29:27.336Z,72.02
2023-04-09T06:31:54.514Z,73.70
2023-04-09T06:34:21.445Z,74.63
2023-04-09T06:36:48.427Z,74.47
2023-04-09T06:39:15.437Z,73.34
2023-04-09T06:41:42.419Z,73.45
2023-04-09T06:44:24.532Z,73.55
2023-04-09T06:46:51.803Z,73.52
2023-04-09T06:49:18.832Z,74.97
2023-04-09T06:51:45.936Z,74.53
2023-04-09T06:54:12.980Z,74.29
2023-04-09T06:56:39.999Z,72.04
2023-04-09T06:59:06.996Z,71.78
2023-04-09T07:01:35.754Z,70.94
2023-04-09T07:04:02.971Z,71.92
2023-04-09T07:06:30.052Z,70.94
2023-04-09T07:08:57.023Z,69.61
2023-04-09T07:11:24.018Z,70.44
2023-04-09T07:13:51.394Z,70.17
2023-04-09T07:16:18.542Z,70.10
2023-04-09T07:18:45.608Z,70.97
2023-04-09T07:21:12.720Z,69.26
2023-04-09T07:23:39.758Z,71.81
2023-04-09T07:26:06.786Z,68.96
2023-04-09T07:28:33.841Z,65.87
2023-04-09T07:31:04.997Z,69.71
2023-04-09T07:33:32.216Z,67.96
2023-04-09T07:35:59.415Z,67.08
2023-04-09T07:38:33.364Z,69.81
2023-04-09T07:41:00.465Z,68.37
2023-04-09T07:43:27.491Z,70.45
2023-04-09T07:45:54.702Z,66.77
2023-04-09T07:48:21.964Z,68.13
2023-04-09T07:50:48.912Z,67.82
2023-04-09T07:53:16.685Z,65.99
2023-04-09T07:55:43.747Z,66.68
2023-04-09T07:58:10.932Z,68.33
2023-04-09T08:00:38.249Z,63.19
2023-04-09T08:03:05.984Z,66.75
2023-04-09T08:05:33.036Z,64.89
2023-04-09T08:08:00.076Z,65.46
2023-04-09T08:10:27.129Z,63.94
2023-04-09T08:12:54.082Z,65.48
2023-04-09T08:15:21.147Z,65.10
2023-04-09T08:17:48.148Z,68.37
2023-04-09T08:20:17.117Z,68.42
2023-04-09T08:22:44.138Z,71.32
2023-04-09T08:25:11.232Z,65.54
2023-04-09T08:27:39.925Z,64.24
2023-04-09T08:30:08.021Z,69.45
2023-04-09T08:32:35.833Z,64.55
2023-04-09T08:35:02.839Z,63.62
2023-04-09T08:37:30.099Z,63.78
2023-04-09T08:39:57.056Z,63.51
2023-04-09T08:42:26.297Z,66.66
2023-04-09T08:44:53.455Z,65.15
2023-04-09T08:47:21.881Z,65.02
2023-04-09T08:49:50.326Z,58.98
2023-04-09T08:52:22.196Z,58.88
2023-04-09T08:54:51.620Z,58.82
2023-04-09T08:57:18.705Z,60.60
2023-04-09T08:59:46.775Z,61.34
2023-04-09T09:02:14.561Z,60.50
2023-04-09T09:04:49.156Z,59.95
2023-04-09T09:07:16.625Z,60.26
2023-04-09T09:09:53.495Z,57.41
2023-04-09T09:12:41.352Z,59.34
2023-04-09T09:15:28.537Z,60.89
2023-04-09T09:18:00.055Z,60.40
2023-04-09T09:20:27.885Z,60.27
2023-04-09T09:22:56.905Z,58.21
2023-04-09T09:25:24.996Z,60.62
2023-04-09T09:27:53.344Z,60.49
2023-04-09T09:30:26.009Z,59.74
2023-04-09T09:33:10.059Z,62.08
2023-04-09T09:35:57.118Z,61.22
2023-04-09T09:38:24.119Z,58.36
2023-04-09T09:40:52.656Z,60.25
2023-04-09T09:43:19.860Z,59.85
2023-04-09T09:45:47.568Z,59.93
2023-04-09T09:48:15.199Z,60.54
2023-04-09T09:50:43.275Z,61.82
2023-04-09T09:53:11.944Z,60.11
2023-04-09T09:55:48.457Z,57.72
2023-04-09T09:58:42.144Z,59.49
2023-04-09T10:01:13.569Z,61.59
2023-04-09T10:03:42.716Z,60.80
2023-04-09T10:06:11.354Z,59.51
2023-04-09T10:08:41.798Z,58.42
2023-04-09T10:11:09.124Z,60.76
2023-04-09T10:13:43.805Z,59.49
2023-04-09T10:16:11.420Z,58.80
2023-04-09T10:18:38.762Z,58.82
2023-04-09T10:21:44.825Z,55.08
2023-04-09T10:24:16.200Z,57.86
2023-04-09T10:26:47.198Z,56.57
2023-04-09T10:29:16.167Z,58.48
2023-04-09T10:32:23.879Z,56.74
2023-04-09T10:34:51.147Z,57.87
2023-04-09T10:37:25.402Z,56.04
2023-04-09T10:39:53.167Z,57.34
2023-04-09T10:42:27.475Z,58.05
2023-04-09T10:45:09.372Z,59.33
2023-04-09T10:47:38.795Z,56.69
2023-04-09T10:50:44.850Z,56.84
2023-04-09T10:53:25.180Z,56.77
2023-04-09T10:55:56.395Z,56.47
2023-04-09T10:58:23.393Z,55.55
2023-04-09T11:00:51.598Z,57.28
2023-04-09T11:03:30.797Z,56.56
2023-04-09T11:06:09.552Z,55.39
2023-04-09T11:08:42.837Z,56.95
2023-04-09T11:11:11.654Z,57.72
2023-04-09T11:13:41.740Z,56.33
2023-04-09T11:16:08.685Z,57.52
2023-04-09T11:18:37.388Z,55.59
2023-04-09T11:21:04.657Z,56.23
2023-04-09T11:23:33.311Z,57.27
2023-04-09T11:26:02.013Z,55.62
2023-04-09T11:28:29.068Z,57.30
2023-04-09T11:30:56.021Z,57.49
2023-04-09T11:33:23.059Z,56.28
2023-04-09T11:35:51.540Z,54.59
2023-04-09T11:38:18.835Z,53.32
2023-04-09T11:40:49.065Z,55.72
2023-04-09T11:43:17.899Z,54.94
2023-04-09T11:45:48.723Z,56.75
2023-04-09T11:48:21.959Z,55.37
2023-04-09T11:50:50.101Z,54.50
2023-04-09T11:53:21.590Z,54.37
2023-04-09T11:55:52.680Z,55.20
2023-04-09T11:58:24.774Z,57.23
2023-04-09T12:01:10.072Z,54.81
2023-04-09T12:03:38.173Z,58.25
2023-04-09T12:06:09.449Z,56.20
2023-04-09T12:08:37.676Z,55.87
2023-04-09T12:11:10.282Z,54.80
2023-04-09T12:13:37.337Z,53.04
2023-04-09T12:16:04.863Z,55.59
2023-04-09T12:18:35.947Z,55.22
2023-04-09T12:21:03.184Z,55.45
2023-04-09T12:23:31.689Z,57.64
2023-04-09T12:26:02.614Z,57.56
2023-04-09T12:28:29.616Z,56.73
2023-04-09T12:30:58.025Z,56.31
2023-04-09T12:33:25.349Z,53.48
2023-04-09T12:35:52.487Z,53.17
2023-04-09T12:38:19.571Z,54.60
2023-04-09T12:40:47.259Z,54.62
2023-04-09T12:43:14.433Z,55.01
2023-04-09T12:45:41.737Z,56.87
2023-04-09T12:48:09.016Z,59.69
2023-04-09T12:50:36.185Z,56.52
2023-04-09T12:53:03.238Z,57.74
2023-04-09T12:55:30.359Z,57.83
2023-04-09T12:57:58.693Z,59.66
2023-04-09T13:00:25.804Z,57.28
2023-04-09T13:02:53.197Z,59.04
2023-04-09T13:05:20.446Z,61.21
2023-04-09T13:07:47.836Z,61.44
2023-04-09T13:10:14.861Z,60.00
2023-04-09T13:12:41.874Z,59.24
2023-04-09T13:15:09.060Z,60.96
2023-04-09T13:17:36.071Z,62.38
2023-04-09T13:20:03.946Z,60.02
2023-04-09T13:22:31.147Z,61.23
2023-04-09T13:24:58.232Z,61.42
2023-04-09T13:27:25.291Z,61.86
2023-04-09T13:29:52.254Z,60.46
2023-04-09T13:32:21.230Z,59.97
2023-04-09T13:34:48.700Z,60.22
2023-04-09T13:37:16.592Z,59.81
2023-04-09T13:39:44.938Z,59.26
2023-04-09T13:42:13.924Z,60.54
2023-04-09T13:44:44.945Z,60.03
2023-04-09T13:47:13.477Z,59.65
2023-04-09T13:49:41.560Z,59.88
2023-04-09T13:52:09.247Z,60.33
2023-04-09T13:54:37.244Z,58.83
2023-04-09T13:57:04.304Z,58.81
2023-04-09T13:59:31.791Z,60.57
2023-04-09T14:01:58.928Z,60.39
2023-04-09T14:04:26.334Z,60.63
2023-04-09T14:06:53.325Z,60.72
2023-04-09T14:09:20.500Z,61.20
2023-04-09T14:11:47.547Z,60.97
2023-04-09T14:14:14.591Z,61.26
2023-04-09T14:16:41.914Z,61.30
2023-04-09T14:19:10.252Z,60.98
2023-04-09T14:21:37.350Z,59.81
2023-04-09T14:24:04.507Z,60.46
2023-04-09T14:26:31.765Z,60.59
2023-04-09T14:28:58.967Z,60.35
2023-04-09T14:31:26.283Z,60.99
2023-04-09T14:33:53.200Z,61.61
2023-04-09T14:36:20.289Z,60.42
2023-04-09T14:38:48.662Z,61.06
2023-04-09T14:41:16.739Z,61.18
2023-04-09T14:43:43.702Z,60.92
2023-04-09T14:46:12.327Z,60.85
2023-04-09T14:48:40.219Z,60.91
2023-04-09T14:51:11.723Z,61.86
2023-04-09T14:53:38.796Z,61.89
2023-04-09T14:56:06.773Z,60.84
2023-04-09T14:58:33.858Z,60.97
2023-04-09T15:01:00.955Z,61.21
2023-04-09T15:03:28.307Z,62.24
2023-04-09T15:05:55.725Z,61.78
2023-04-09T15:08:23.814Z,62.00
2023-04-09T15:10:51.373Z,62.04
2023-04-09T15:13:18.356Z,62.34
2023-04-09T15:15:45.511Z,62.20
2023-04-09T15:18:12.622Z,62.08
2023-04-09T15:20:40.614Z,60.18
2023-04-09T15:23:07.581Z,60.59
2023-04-09T15:25:35.537Z,61.67
2023-04-09T15:28:03.525Z,62.42
2023-04-09T15:30:30.872Z,62.57
2023-04-09T15:32:58.077Z,62.46
2023-04-09T15:35:26.812Z,62.40
2023-04-09T15:37:53.894Z,61.42
2023-04-09T15:40:21.418Z,63.16
2023-04-09T15:42:48.439Z,62.21
2023-04-09T15:45:18.244Z,63.81
2023-04-09T15:47:46.209Z,64.01
2023-04-09T15:50:14.111Z,63.62
2023-04-09T15:52:41.433Z,63.58
2023-04-09T15:55:09.210Z,64.23
2023-04-09T15:57:36.669Z,64.37
2023-04-09T16:00:03.935Z,64.73
2023-04-09T16:02:31.703Z,64.63
2023-04-09T16:04:58.894Z,64.03
2023-04-09T16:07:26.848Z,64.24
2023-04-09T16:09:53.910Z,65.40
2023-04-09T16:12:21.410Z,65.13
2023-04-09T16:14:48.351Z,64.25
2023-04-09T16:17:15.684Z,65.06
2023-04-09T16:19:43.424Z,64.18
2023-04-09T16:22:11.474Z,63.69
2023-04-09T16:24:38.658Z,64.19
2023-04-09T16:27:05.627Z,65.69
2023-04-09T16:29:32.745Z,66.04
2023-04-09T16:31:59.861Z,65.54
2023-04-09T16:34:26.950Z,65.64
2023-04-09T16:36:53.946Z,64.85
2023-04-09T16:39:21.504Z,65.86
2023-04-09T16:41:49.506Z,66.66
2023-04-09T16:44:16.555Z,65.94
2023-04-09T16:46:46.660Z,65.65
2023-04-09T16:49:14.195Z,65.67
2023-04-09T16:51:41.328Z,63.01
2023-04-09T16:54:08.489Z,65.20
2023-04-09T16:56:36.303Z,65.17
2023-04-09T16:59:03.295Z,63.19
2023-04-09T17:01:33.754Z,64.80
2023-04-09T17:04:04.214Z,65.24
2023-04-09T17:06:31.709Z,64.08
2023-04-09T17:08:59.600Z,65.29
2023-04-09T17:11:26.728Z,65.03
2023-04-09T17:13:57.235Z,65.44
2023-04-09T17:16:25.447Z,65.47
2023-04-09T17:18:53.587Z,65.24
2023-04-09T17:21:21.787Z,64.85
2023-04-09T17:23:56.213Z,65.12
2023-04-09T17:26:23.265Z,65.16
2023-04-09T17:28:50.356Z,64.70
2023-04-09T17:31:17.963Z,64.96
2023-04-09T17:33:48.128Z,64.03
2023-04-09T17:36:17.475Z,64.86
2023-04-09T17:38:44.516Z,63.54
2023-04-09T17:41:11.673Z,64.72
2023-04-09T17:43:41.820Z,63.90
2023-04-09T17:46:09.059Z,64.46
2023-04-09T17:48:37.498Z,64.18
2023-04-09T17:51:05.327Z,63.93
2023-04-09T17:53:32.329Z,64.27
2023-04-09T17:55:59.494Z,64.66
2023-04-09T17:58:27.204Z,65.10
2023-04-09T18:00:55.571Z,66.14
2023-04-09T18:03:22.854Z,66.03
2023-04-09T18:05:50.161Z,65.91
2023-04-09T18:08:18.698Z,65.76
2023-04-09T18:11:01.624Z,65.73
2023-04-09T18:13:38.458Z,65.36
2023-04-09T18:16:09.427Z,64.58
2023-04-09T18:18:36.686Z,64.68
2023-04-09T18:21:03.922Z,64.79
2023-04-09T18:23:31.090Z,65.24
2023-04-09T18:25:58.169Z,65.11
2023-04-09T18:28:25.322Z,64.67
2023-04-09T18:30:54.213Z,64.12
2023-04-09T18:33:21.382Z,64.75
2023-04-09T18:35:48.405Z,65.17
2023-04-09T18:38:15.462Z,64.65
2023-04-09T18:40:45.398Z,64.58
2023-04-09T18:43:12.614Z,64.93
2023-04-09T18:45:42.749Z,64.74
2023-04-09T18:48:11.563Z,64.61
2023-04-09T18:50:38.509Z,65.32
2023-04-09T18:53:06.807Z,64.96
2023-04-09T18:55:37.971Z,64.96
2023-04-09T18:58:12.715Z,64.55
2023-04-09T19:00:39.798Z,64.76
2023-04-09T19:03:08.209Z,65.26
2023-04-09T19:05:35.753Z,65.34
2023-04-09T19:08:05.746Z,65.08
2023-04-09T19:10:33.126Z,64.96
2023-04-09T19:13:00.163Z,65.45
2023-04-09T19:15:28.892Z,65.78
2023-04-09T19:17:56.820Z,65.87
2023-04-09T19:20:24.233Z,66.30
2023-04-09T19:22:56.768Z,66.74
2023-04-09T19:25:24.284Z,66.81
2023-04-09T19:27:53.721Z,67.10
2023-04-09T19:30:21.408Z,67.73
2023-04-09T19:32:48.491Z,67.84
2023-04-09T19:35:15.685Z,66.35
2023-04-09T19:37:42.843Z,67.24
2023-04-09T19:40:10.185Z,67.65
2023-04-09T19:42:37.224Z,67.63
2023-04-09T19:45:04.606Z,66.74
2023-04-09T19:47:31.905Z,66.64
2023-04-09T19:49:58.891Z,68.59
2023-04-09T19:52:26.236Z,67.62
2023-04-09T19:54:56.525Z,67.71
2023-04-09T19:57:23.766Z,67.91
2023-04-09T19:59:52.442Z,67.23
2023-04-09T20:02:19.823Z,68.11
2023-04-09T20:04:47.125Z,68.84
2023-04-09T20:07:14.445Z,68.66
2023-04-09T20:09:42.779Z,68.84
2023-04-09T20:12:10.180Z,69.13
2023-04-09T20:14:38.472Z,69.27
2023-04-09T20:17:08.906Z,68.82
2023-04-09T20:19:36.444Z,69.91
2023-04-09T20:22:03.505Z,69.02
2023-04-09T20:24:30.879Z,69.15
2023-04-09T20:26:59.686Z,69.14
2023-04-09T20:29:26.806Z,69.37
2023-04-09T20:31:53.848Z,69.70
2023-04-09T20:34:26.518Z,69.53
2023-04-09T20:36:54.261Z,70.00
2023-04-09T20:39:26.761Z,69.77
2023-04-09T20:41:55.259Z,71.33
2023-04-09T20:44:22.943Z,70.78
2023-04-09T20:46:51.036Z,70.97
2023-04-09T20:49:18.260Z,71.19
2023-04-09T20:51:46.433Z,71.32
2023-04-09T20:54:13.433Z,71.26
2023-04-09T20:56:40.712Z,71.46
2023-04-09T20:59:07.885Z,71.21
2023-04-09T21:01:36.001Z,70.80
2023-04-09T21:04:03.902Z,71.22
2023-04-09T21:06:31.239Z,71.40
2023-04-09T21:08:59.919Z,71.40
2023-04-09T21:11:27.040Z,72.39
2023-04-09T21:13:55.317Z,72.16
2023-04-09T21:16:23.273Z,72.13
2023-04-09T21:18:50.488Z,72.68
2023-04-09T21:21:17.540Z,72.86
2023-04-09T21:23:44.662Z,73.74
2023-04-09T21:26:12.032Z,73.08
2023-04-09T21:28:39.114Z,72.00
2023-04-09T21:31:06.475Z,71.76
2023-04-09T21:33:33.577Z,71.60
2023-04-09T21:36:01.436Z,69.74
2023-04-09T21:38:28.930Z,70.30
2023-04-09T21:40:55.859Z,70.00
2023-04-09T21:43:22.882Z,70.66
2023-04-09T21:45:50.774Z,70.16
2023-04-09T21:48:17.843Z,71.25
2023-04-09T21:50:45.616Z,71.03
2023-04-09T21:53:14.149Z,70.73
2023-04-09T21:55:41.274Z,70.00
2023-04-09T21:58:09.315Z,68.42
2023-04-09T22:00:37.046Z,69.30
2023-04-09T22:03:04.296Z,70.15
2023-04-09T22:05:34.451Z,69.34
2023-04-09T22:08:01.533Z,68.82
2023-04-09T22:10:41.022Z,68.77
2023-04-09T22:13:10.024Z,68.31
2023-04-09T22:15:37.492Z,68.79
2023-04-09T22:18:04.697Z,68.94
2023-04-09T22:20:31.897Z,68.83
2023-04-09T22:22:59.409Z,68.67
2023-04-09T22:25:26.626Z,68.37
2023-04-09T22:27:53.605Z,67.52
2023-04-09T22:30:24.600Z,67.83
2023-04-09T22:32:52.116Z,67.85
2023-04-09T22:35:19.251Z,68.19
2023-04-09T22:37:47.245Z,68.46
2023-04-09T22:40:16.144Z,67.92
2023-04-09T22:42:44.304Z,68.27
2023-04-09T22:45:11.796Z,67.68
2023-04-09T22:47:39.447Z,67.59
2023-04-09T22:50:07.405Z,68.27
2023-04-09T22:52:34.429Z,67.98
2023-04-09T22:55:02.178Z,68.17
2023-04-09T22:57:29.100Z,68.01
2023-04-09T22:59:56.536Z,68.22
2023-04-09T23:02:23.853Z,68.41
2023-04-09T23:04:51.160Z,68.44
2023-04-09T23:07:18.305Z,68.51
2023-04-09T23:09:45.754Z,67.87
2023-04-09T23:12:12.896Z,68.20
2023-04-09T23:14:42.852Z,68.43
2023-04-09T23:17:09.920Z,68.49
2023-04-09T23:19:36.814Z,68.59
2023-04-09T23:22:03.891Z,68.69
2023-04-09T23:36:31.178Z,69.65
2023-04-09T23:38:58.189Z,69.89
2023-04-09T23:41:26.174Z,69.90
2023-04-09T23:43:53.440Z,70.10
2023-04-09T23:46:20.830Z,70.14
2023-04-09T23:48:48.203Z,69.91
2023-04-09T23:51:19.247Z,69.73
2023-04-09T23:53:46.824Z,69.83
2023-04-09T23:56:14.804Z,69.02
2023-04-09T23:58:42.258Z,69.38
